sensor_id;sensor_type;location;lat;lon;timestamp;P1;durP1;ratioP1;P2;durP2;ratioP2
7128;SDS011;3606;52.930;8.644;2023-08-08T00:01:31;5.37;;;2.80;;
7128;SDS011;3606;52.930;8.644;2023-08-08T00:03:57;7.80;;;3.27;;
7128;SDS011;3606;52.930;8.644;2023-08-08T00:06:22;6.33;;;3.17;;
7128;SDS011;3606;52.930;8.644;2023-08-08T00:08:48;5.60;;;3.27;;
7128;SDS011;3606;52.930;8.644;2023-08-08T00:11:14;4.53;;;2.83;;
7128;SDS011;3606;52.930;8.644;2023-08-08T00:13:39;4.67;;;3.00;;
7128;SDS011;3606;52.930;8.644;2023-08-08T00:16:05;3.77;;;3.07;;
7128;SDS011;3606;52.930;8.644;2023-08-08T00:18:30;5.57;;;2.83;;
7128;SDS011;3606;52.930;8.644;2023-08-08T00:20:56;5.60;;;3.27;;
7128;SDS011;3606;52.930;8.644;2023-08-08T00:23:21;9.33;;;3.23;;
7128;SDS011;3606;52.930;8.644;2023-08-08T00:25:47;3.67;;;2.80;;
7128;SDS011;3606;52.930;8.644;2023-08-08T00:28:16;4.77;;;2.97;;
7128;SDS011;3606;52.930;8.644;2023-08-08T00:30:42;6.93;;;3.10;;
7128;SDS011;3606;52.930;8.644;2023-08-08T00:33:08;4.33;;;3.20;;
7128;SDS011;3606;52.930;8.644;2023-08-08T00:35:33;3.53;;;2.83;;
7128;SDS011;3606;52.930;8.644;2023-08-08T00:37:59;3.43;;;2.63;;
7128;SDS011;3606;52.930;8.644;2023-08-08T00:40:24;4.10;;;3.00;;
7128;SDS011;3606;52.930;8.644;2023-08-08T00:42:50;3.63;;;3.00;;
7128;SDS011;3606;52.930;8.644;2023-08-08T00:45:16;4.80;;;3.00;;
7128;SDS011;3606;52.930;8.644;2023-08-08T00:47:41;6.30;;;3.00;;
7128;SDS011;3606;52.930;8.644;2023-08-08T00:50:07;3.80;;;2.80;;
7128;SDS011;3606;52.930;8.644;2023-08-08T00:52:35;4.10;;;3.00;;
7128;SDS011;3606;52.930;8.644;2023-08-08T00:55:02;7.50;;;3.70;;
7128;SDS011;3606;52.930;8.644;2023-08-08T00:57:28;5.27;;;3.20;;
7128;SDS011;3606;52.930;8.644;2023-08-08T00:59:54;5.40;;;3.47;;
7128;SDS011;3606;52.930;8.644;2023-08-08T01:02:19;6.30;;;3.23;;
7128;SDS011;3606;52.930;8.644;2023-08-08T01:04:45;5.90;;;3.60;;
7128;SDS011;3606;52.930;8.644;2023-08-08T01:10:05;5.17;;;3.63;;
7128;SDS011;3606;52.930;8.644;2023-08-08T01:12:40;7.33;;;3.40;;
7128;SDS011;3606;52.930;8.644;2023-08-08T01:15:09;7.13;;;3.37;;
7128;SDS011;3606;52.930;8.644;2023-08-08T01:17:36;5.53;;;3.70;;
7128;SDS011;3606;52.930;8.644;2023-08-08T01:20:03;9.03;;;4.17;;
7128;SDS011;3606;52.930;8.644;2023-08-08T01:22:32;7.70;;;3.67;;
7128;SDS011;3606;52.930;8.644;2023-08-08T01:25:04;5.20;;;4.20;;
7128;SDS011;3606;52.930;8.644;2023-08-08T01:27:30;5.50;;;3.77;;
7128;SDS011;3606;52.930;8.644;2023-08-08T01:29:55;6.43;;;4.40;;
7128;SDS011;3606;52.930;8.644;2023-08-08T01:32:21;6.87;;;4.07;;
7128;SDS011;3606;52.930;8.644;2023-08-08T01:34:47;8.60;;;3.73;;
7128;SDS011;3606;52.930;8.644;2023-08-08T01:40:00;6.73;;;3.83;;
7128;SDS011;3606;52.930;8.644;2023-08-08T01:42:27;10.27;;;4.20;;
7128;SDS011;3606;52.930;8.644;2023-08-08T01:44:54;5.97;;;3.90;;
7128;SDS011;3606;52.930;8.644;2023-08-08T01:47:21;6.83;;;4.57;;
7128;SDS011;3606;52.930;8.644;2023-08-08T01:49:47;5.83;;;4.47;;
7128;SDS011;3606;52.930;8.644;2023-08-08T01:52:12;9.87;;;4.07;;
7128;SDS011;3606;52.930;8.644;2023-08-08T01:54:38;9.10;;;4.10;;
7128;SDS011;3606;52.930;8.644;2023-08-08T01:57:04;6.07;;;4.43;;
7128;SDS011;3606;52.930;8.644;2023-08-08T01:59:30;6.30;;;4.20;;
7128;SDS011;3606;52.930;8.644;2023-08-08T02:01:55;6.20;;;4.17;;
7128;SDS011;3606;52.930;8.644;2023-08-08T02:04:21;7.87;;;4.10;;
7128;SDS011;3606;52.930;8.644;2023-08-08T02:06:46;8.90;;;4.50;;
7128;SDS011;3606;52.930;8.644;2023-08-08T02:09:12;7.17;;;4.00;;
7128;SDS011;3606;52.930;8.644;2023-08-08T02:11:40;6.30;;;4.33;;
7128;SDS011;3606;52.930;8.644;2023-08-08T02:14:06;5.40;;;4.30;;
7128;SDS011;3606;52.930;8.644;2023-08-08T02:16:32;5.40;;;4.30;;
7128;SDS011;3606;52.930;8.644;2023-08-08T02:18:57;7.37;;;4.17;;
7128;SDS011;3606;52.930;8.644;2023-08-08T02:21:23;9.07;;;4.83;;
7128;SDS011;3606;52.930;8.644;2023-08-08T02:23:48;5.07;;;4.20;;
7128;SDS011;3606;52.930;8.644;2023-08-08T02:26:14;9.00;;;4.20;;
7128;SDS011;3606;52.930;8.644;2023-08-08T02:28:39;7.27;;;4.60;;
7128;SDS011;3606;52.930;8.644;2023-08-08T02:31:06;5.90;;;4.60;;
7128;SDS011;3606;52.930;8.644;2023-08-08T02:33:31;7.87;;;5.07;;
7128;SDS011;3606;52.930;8.644;2023-08-08T02:35:57;6.33;;;4.70;;
7128;SDS011;3606;52.930;8.644;2023-08-08T02:38:22;6.63;;;4.77;;
7128;SDS011;3606;52.930;8.644;2023-08-08T02:40:48;6.93;;;4.60;;
7128;SDS011;3606;52.930;8.644;2023-08-08T02:43:13;5.70;;;4.60;;
7128;SDS011;3606;52.930;8.644;2023-08-08T02:45:39;7.90;;;5.03;;
7128;SDS011;3606;52.930;8.644;2023-08-08T02:48:05;7.30;;;4.77;;
7128;SDS011;3606;52.930;8.644;2023-08-08T02:50:30;8.50;;;4.80;;
7128;SDS011;3606;52.930;8.644;2023-08-08T02:52:56;7.20;;;4.70;;
7128;SDS011;3606;52.930;8.644;2023-08-08T02:55:22;7.87;;;5.20;;
7128;SDS011;3606;52.930;8.644;2023-08-08T02:57:47;10.57;;;5.00;;
7128;SDS011;3606;52.930;8.644;2023-08-08T03:00:13;8.57;;;4.80;;
7128;SDS011;3606;52.930;8.644;2023-08-08T03:02:38;5.70;;;4.70;;
7128;SDS011;3606;52.930;8.644;2023-08-08T03:05:04;12.10;;;5.20;;
7128;SDS011;3606;52.930;8.644;2023-08-08T03:07:30;8.90;;;4.33;;
7128;SDS011;3606;52.930;8.644;2023-08-08T03:09:56;7.03;;;5.20;;
7128;SDS011;3606;52.930;8.644;2023-08-08T03:12:22;7.40;;;4.90;;
7128;SDS011;3606;52.930;8.644;2023-08-08T03:14:47;7.80;;;5.27;;
7128;SDS011;3606;52.930;8.644;2023-08-08T03:17:13;8.43;;;5.07;;
7128;SDS011;3606;52.930;8.644;2023-08-08T03:19:38;11.73;;;5.33;;
7128;SDS011;3606;52.930;8.644;2023-08-08T03:22:04;8.50;;;4.70;;
7128;SDS011;3606;52.930;8.644;2023-08-08T03:24:29;6.87;;;4.77;;
7128;SDS011;3606;52.930;8.644;2023-08-08T03:26:55;6.63;;;4.70;;
7128;SDS011;3606;52.930;8.644;2023-08-08T03:29:21;5.97;;;4.77;;
7128;SDS011;3606;52.930;8.644;2023-08-08T03:31:46;10.20;;;4.97;;
7128;SDS011;3606;52.930;8.644;2023-08-08T03:34:12;6.77;;;5.10;;
7128;SDS011;3606;52.930;8.644;2023-08-08T03:36:37;8.77;;;5.17;;
7128;SDS011;3606;52.930;8.644;2023-08-08T03:39:03;9.80;;;5.17;;
7128;SDS011;3606;52.930;8.644;2023-08-08T03:41:29;5.83;;;4.73;;
7128;SDS011;3606;52.930;8.644;2023-08-08T03:43:54;9.67;;;4.97;;
7128;SDS011;3606;52.930;8.644;2023-08-08T03:46:21;8.53;;;5.53;;
7128;SDS011;3606;52.930;8.644;2023-08-08T03:48:47;8.70;;;4.83;;
7128;SDS011;3606;52.930;8.644;2023-08-08T03:51:12;6.20;;;4.53;;
7128;SDS011;3606;52.930;8.644;2023-08-08T03:53:38;8.97;;;5.37;;
7128;SDS011;3606;52.930;8.644;2023-08-08T03:56:04;10.07;;;5.43;;
7128;SDS011;3606;52.930;8.644;2023-08-08T03:58:30;7.70;;;4.53;;
7128;SDS011;3606;52.930;8.644;2023-08-08T04:00:55;10.90;;;5.13;;
7128;SDS011;3606;52.930;8.644;2023-08-08T04:03:21;7.37;;;5.00;;
7128;SDS011;3606;52.930;8.644;2023-08-08T04:05:47;8.07;;;5.53;;
7128;SDS011;3606;52.930;8.644;2023-08-08T04:08:16;10.17;;;5.57;;
7128;SDS011;3606;52.930;8.644;2023-08-08T04:10:42;11.77;;;5.10;;
7128;SDS011;3606;52.930;8.644;2023-08-08T04:13:09;7.43;;;4.80;;
7128;SDS011;3606;52.930;8.644;2023-08-08T04:15:35;8.70;;;4.80;;
7128;SDS011;3606;52.930;8.644;2023-08-08T04:18:00;11.07;;;5.07;;
7128;SDS011;3606;52.930;8.644;2023-08-08T04:20:26;6.77;;;4.80;;
7128;SDS011;3606;52.930;8.644;2023-08-08T04:22:52;8.60;;;4.67;;
7128;SDS011;3606;52.930;8.644;2023-08-08T04:25:17;8.60;;;4.73;;
7128;SDS011;3606;52.930;8.644;2023-08-08T04:27:44;7.70;;;5.23;;
7128;SDS011;3606;52.930;8.644;2023-08-08T04:30:10;10.60;;;4.67;;
7128;SDS011;3606;52.930;8.644;2023-08-08T04:32:35;6.93;;;4.60;;
7128;SDS011;3606;52.930;8.644;2023-08-08T04:35:01;9.33;;;5.30;;
7128;SDS011;3606;52.930;8.644;2023-08-08T04:37:27;12.13;;;5.10;;
7128;SDS011;3606;52.930;8.644;2023-08-08T04:39:52;9.00;;;5.17;;
7128;SDS011;3606;52.930;8.644;2023-08-08T04:42:18;10.33;;;4.40;;
7128;SDS011;3606;52.930;8.644;2023-08-08T04:44:43;10.20;;;4.70;;
7128;SDS011;3606;52.930;8.644;2023-08-08T04:47:09;9.20;;;4.50;;
7128;SDS011;3606;52.930;8.644;2023-08-08T04:49:34;7.13;;;4.73;;
7128;SDS011;3606;52.930;8.644;2023-08-08T04:52:00;9.60;;;4.77;;
7128;SDS011;3606;52.930;8.644;2023-08-08T04:54:25;7.80;;;5.00;;
7128;SDS011;3606;52.930;8.644;2023-08-08T04:56:51;8.80;;;4.90;;
7128;SDS011;3606;52.930;8.644;2023-08-08T04:59:16;7.40;;;4.37;;
7128;SDS011;3606;52.930;8.644;2023-08-08T05:01:42;8.07;;;4.40;;
7128;SDS011;3606;52.930;8.644;2023-08-08T05:04:08;10.87;;;4.50;;
7128;SDS011;3606;52.930;8.644;2023-08-08T05:06:34;5.77;;;4.43;;
7128;SDS011;3606;52.930;8.644;2023-08-08T05:08:59;9.00;;;4.63;;
7128;SDS011;3606;52.930;8.644;2023-08-08T05:11:25;8.23;;;4.53;;
7128;SDS011;3606;52.930;8.644;2023-08-08T05:13:50;7.13;;;4.37;;
7128;SDS011;3606;52.930;8.644;2023-08-08T05:16:16;8.07;;;4.63;;
7128;SDS011;3606;52.930;8.644;2023-08-08T05:18:42;6.90;;;4.70;;
7128;SDS011;3606;52.930;8.644;2023-08-08T05:21:10;8.47;;;4.60;;
7128;SDS011;3606;52.930;8.644;2023-08-08T05:23:35;5.60;;;4.00;;
7128;SDS011;3606;52.930;8.644;2023-08-08T05:26:01;7.70;;;4.57;;
7128;SDS011;3606;52.930;8.644;2023-08-08T05:28:27;7.87;;;4.40;;
7128;SDS011;3606;52.930;8.644;2023-08-08T05:30:52;8.50;;;4.70;;
7128;SDS011;3606;52.930;8.644;2023-08-08T05:33:18;8.93;;;4.30;;
7128;SDS011;3606;52.930;8.644;2023-08-08T05:35:43;7.00;;;4.67;;
7128;SDS011;3606;52.930;8.644;2023-08-08T05:38:09;6.97;;;3.87;;
7128;SDS011;3606;52.930;8.644;2023-08-08T05:40:35;7.30;;;3.90;;
7128;SDS011;3606;52.930;8.644;2023-08-08T05:43:03;5.60;;;4.00;;
7128;SDS011;3606;52.930;8.644;2023-08-08T05:45:29;10.30;;;4.17;;
7128;SDS011;3606;52.930;8.644;2023-08-08T05:47:54;6.87;;;4.20;;
7128;SDS011;3606;52.930;8.644;2023-08-08T05:50:21;8.53;;;4.20;;
7128;SDS011;3606;52.930;8.644;2023-08-08T05:52:46;5.77;;;3.87;;
7128;SDS011;3606;52.930;8.644;2023-08-08T05:55:12;5.70;;;3.90;;
7128;SDS011;3606;52.930;8.644;2023-08-08T05:57:38;6.13;;;3.63;;
7128;SDS011;3606;52.930;8.644;2023-08-08T06:00:04;9.30;;;3.67;;
7128;SDS011;3606;52.930;8.644;2023-08-08T06:02:30;7.87;;;3.60;;
7128;SDS011;3606;52.930;8.644;2023-08-08T06:04:56;6.63;;;3.33;;
7128;SDS011;3606;52.930;8.644;2023-08-08T06:07:23;6.67;;;3.40;;
7128;SDS011;3606;52.930;8.644;2023-08-08T06:09:48;5.13;;;3.40;;
7128;SDS011;3606;52.930;8.644;2023-08-08T06:12:14;9.33;;;3.63;;
7128;SDS011;3606;52.930;8.644;2023-08-08T06:14:39;7.53;;;3.23;;
7128;SDS011;3606;52.930;8.644;2023-08-08T06:17:05;12.07;;;3.40;;
7128;SDS011;3606;52.930;8.644;2023-08-08T06:19:30;8.77;;;3.30;;
7128;SDS011;3606;52.930;8.644;2023-08-08T06:21:56;6.00;;;2.97;;
7128;SDS011;3606;52.930;8.644;2023-08-08T06:24:22;5.23;;;2.80;;
7128;SDS011;3606;52.930;8.644;2023-08-08T06:26:47;8.17;;;3.30;;
7128;SDS011;3606;52.930;8.644;2023-08-08T06:29:13;5.17;;;2.90;;
7128;SDS011;3606;52.930;8.644;2023-08-08T06:31:39;4.60;;;3.10;;
7128;SDS011;3606;52.930;8.644;2023-08-08T06:34:05;4.67;;;2.77;;
7128;SDS011;3606;52.930;8.644;2023-08-08T06:36:30;6.53;;;2.77;;
7128;SDS011;3606;52.930;8.644;2023-08-08T06:38:56;9.83;;;2.83;;
7128;SDS011;3606;52.930;8.644;2023-08-08T06:41:22;5.60;;;2.50;;
7128;SDS011;3606;52.930;8.644;2023-08-08T06:43:47;7.50;;;2.70;;
7128;SDS011;3606;52.930;8.644;2023-08-08T06:46:13;6.97;;;2.63;;
7128;SDS011;3606;52.930;8.644;2023-08-08T06:48:39;4.93;;;2.40;;
7128;SDS011;3606;52.930;8.644;2023-08-08T06:51:07;5.53;;;2.80;;
7128;SDS011;3606;52.930;8.644;2023-08-08T06:53:33;3.27;;;2.10;;
7128;SDS011;3606;52.930;8.644;2023-08-08T06:55:58;6.00;;;2.60;;
7128;SDS011;3606;52.930;8.644;2023-08-08T06:58:24;6.43;;;2.60;;
7128;SDS011;3606;52.930;8.644;2023-08-08T07:00:50;6.77;;;2.40;;
7128;SDS011;3606;52.930;8.644;2023-08-08T07:03:16;4.97;;;2.20;;
7128;SDS011;3606;52.930;8.644;2023-08-08T07:05:41;8.13;;;2.50;;
7128;SDS011;3606;52.930;8.644;2023-08-08T07:08:07;4.23;;;2.03;;
7128;SDS011;3606;52.930;8.644;2023-08-08T07:10:33;3.50;;;2.40;;
7128;SDS011;3606;52.930;8.644;2023-08-08T07:13:00;6.57;;;2.50;;
7128;SDS011;3606;52.930;8.644;2023-08-08T07:15:26;3.10;;;2.00;;
7128;SDS011;3606;52.930;8.644;2023-08-08T07:17:52;6.30;;;2.10;;
7128;SDS011;3606;52.930;8.644;2023-08-08T07:20:18;5.17;;;2.27;;
7128;SDS011;3606;52.930;8.644;2023-08-08T07:22:44;4.20;;;1.93;;
7128;SDS011;3606;52.930;8.644;2023-08-08T07:25:10;4.03;;;2.10;;
7128;SDS011;3606;52.930;8.644;2023-08-08T07:27:36;4.07;;;1.97;;
7128;SDS011;3606;52.930;8.644;2023-08-08T07:30:02;6.73;;;2.10;;
7128;SDS011;3606;52.930;8.644;2023-08-08T07:32:29;4.53;;;1.97;;
7128;SDS011;3606;52.930;8.644;2023-08-08T07:34:54;5.63;;;1.97;;
7128;SDS011;3606;52.930;8.644;2023-08-08T07:37:20;4.67;;;2.30;;
7128;SDS011;3606;52.930;8.644;2023-08-08T07:39:46;3.40;;;1.90;;
7128;SDS011;3606;52.930;8.644;2023-08-08T07:42:15;3.30;;;1.87;;
7128;SDS011;3606;52.930;8.644;2023-08-08T07:44:41;3.47;;;1.67;;
7128;SDS011;3606;52.930;8.644;2023-08-08T07:47:07;4.20;;;1.50;;
7128;SDS011;3606;52.930;8.644;2023-08-08T07:49:32;4.40;;;1.60;;
7128;SDS011;3606;52.930;8.644;2023-08-08T07:51:58;6.13;;;2.27;;
7128;SDS011;3606;52.930;8.644;2023-08-08T07:54:23;7.00;;;2.20;;
7128;SDS011;3606;52.930;8.644;2023-08-08T07:56:49;3.97;;;1.83;;
7128;SDS011;3606;52.930;8.644;2023-08-08T07:59:14;6.57;;;1.70;;
7128;SDS011;3606;52.930;8.644;2023-08-08T08:01:41;4.50;;;1.80;;
7128;SDS011;3606;52.930;8.644;2023-08-08T08:04:06;2.23;;;1.30;;
7128;SDS011;3606;52.930;8.644;2023-08-08T08:06:32;6.43;;;2.00;;
7128;SDS011;3606;52.930;8.644;2023-08-08T08:08:58;3.27;;;1.60;;
7128;SDS011;3606;52.930;8.644;2023-08-08T08:11:23;2.27;;;1.63;;
7128;SDS011;3606;52.930;8.644;2023-08-08T08:13:49;3.77;;;1.43;;
7128;SDS011;3606;52.930;8.644;2023-08-08T08:16:15;1.67;;;1.40;;
7128;SDS011;3606;52.930;8.644;2023-08-08T08:18:40;3.90;;;1.80;;
7128;SDS011;3606;52.930;8.644;2023-08-08T08:21:06;2.97;;;1.40;;
7128;SDS011;3606;52.930;8.644;2023-08-08T08:23:32;3.57;;;1.93;;
7128;SDS011;3606;52.930;8.644;2023-08-08T08:25:58;2.43;;;1.50;;
7128;SDS011;3606;52.930;8.644;2023-08-08T08:28:25;2.43;;;1.57;;
7128;SDS011;3606;52.930;8.644;2023-08-08T08:30:51;4.27;;;2.00;;
7128;SDS011;3606;52.930;8.644;2023-08-08T08:33:17;2.63;;;1.60;;
7128;SDS011;3606;52.930;8.644;2023-08-08T08:35:42;2.27;;;1.57;;
7128;SDS011;3606;52.930;8.644;2023-08-08T08:38:08;3.07;;;1.37;;
7128;SDS011;3606;52.930;8.644;2023-08-08T08:40:36;4.20;;;1.70;;
7128;SDS011;3606;52.930;8.644;2023-08-08T08:43:03;3.63;;;1.30;;
7128;SDS011;3606;52.930;8.644;2023-08-08T08:45:29;2.53;;;1.70;;
7128;SDS011;3606;52.930;8.644;2023-08-08T08:47:56;2.63;;;1.33;;
7128;SDS011;3606;52.930;8.644;2023-08-08T08:50:26;2.87;;;1.50;;
7128;SDS011;3606;52.930;8.644;2023-08-08T08:52:53;3.87;;;1.60;;
7128;SDS011;3606;52.930;8.644;2023-08-08T08:55:21;3.80;;;1.50;;
7128;SDS011;3606;52.930;8.644;2023-08-08T08:57:47;4.27;;;1.60;;
7128;SDS011;3606;52.930;8.644;2023-08-08T09:00:15;3.03;;;1.30;;
7128;SDS011;3606;52.930;8.644;2023-08-08T09:02:41;4.00;;;1.50;;
7128;SDS011;3606;52.930;8.644;2023-08-08T09:05:07;3.43;;;1.60;;
7128;SDS011;3606;52.930;8.644;2023-08-08T09:07:33;2.90;;;1.43;;
7128;SDS011;3606;52.930;8.644;2023-08-08T09:10:00;4.97;;;2.17;;
7128;SDS011;3606;52.930;8.644;2023-08-08T09:12:26;2.93;;;1.67;;
7128;SDS011;3606;52.930;8.644;2023-08-08T09:14:56;3.40;;;1.60;;
7128;SDS011;3606;52.930;8.644;2023-08-08T09:17:24;3.37;;;1.47;;
7128;SDS011;3606;52.930;8.644;2023-08-08T09:19:52;3.10;;;1.70;;
7128;SDS011;3606;52.930;8.644;2023-08-08T09:22:23;2.83;;;1.37;;
7128;SDS011;3606;52.930;8.644;2023-08-08T09:24:49;3.03;;;1.40;;
7128;SDS011;3606;52.930;8.644;2023-08-08T09:27:15;2.70;;;1.10;;
7128;SDS011;3606;52.930;8.644;2023-08-08T09:29:41;1.63;;;1.10;;
7128;SDS011;3606;52.930;8.644;2023-08-08T09:32:07;4.03;;;1.23;;
7128;SDS011;3606;52.930;8.644;2023-08-08T09:34:33;2.30;;;1.20;;
7128;SDS011;3606;52.930;8.644;2023-08-08T09:36:59;6.60;;;1.33;;
7128;SDS011;3606;52.930;8.644;2023-08-08T09:39:25;1.73;;;1.30;;
7128;SDS011;3606;52.930;8.644;2023-08-08T09:41:51;5.47;;;1.40;;
7128;SDS011;3606;52.930;8.644;2023-08-08T09:44:17;2.80;;;1.40;;
7128;SDS011;3606;52.930;8.644;2023-08-08T09:46:42;1.10;;;1.00;;
7128;SDS011;3606;52.930;8.644;2023-08-08T09:49:09;4.27;;;1.60;;
7128;SDS011;3606;52.930;8.644;2023-08-08T09:51:36;5.10;;;1.30;;
7128;SDS011;3606;52.930;8.644;2023-08-08T09:54:02;2.80;;;1.47;;
7128;SDS011;3606;52.930;8.644;2023-08-08T09:56:30;1.80;;;1.40;;
7128;SDS011;3606;52.930;8.644;2023-08-08T09:58:56;2.40;;;1.50;;
7128;SDS011;3606;52.930;8.644;2023-08-08T10:01:23;3.43;;;1.50;;
7128;SDS011;3606;52.930;8.644;2023-08-08T10:03:51;3.37;;;1.40;;
7128;SDS011;3606;52.930;8.644;2023-08-08T10:06:17;2.17;;;1.30;;
7128;SDS011;3606;52.930;8.644;2023-08-08T10:08:43;5.13;;;1.33;;
7128;SDS011;3606;52.930;8.644;2023-08-08T10:11:10;2.67;;;1.20;;
7128;SDS011;3606;52.930;8.644;2023-08-08T10:13:37;4.17;;;1.37;;
7128;SDS011;3606;52.930;8.644;2023-08-08T10:16:11;1.97;;;1.20;;
7128;SDS011;3606;52.930;8.644;2023-08-08T10:18:37;4.67;;;1.37;;
7128;SDS011;3606;52.930;8.644;2023-08-08T10:21:06;4.03;;;1.60;;
7128;SDS011;3606;52.930;8.644;2023-08-08T10:23:38;1.95;;;1.25;;
7128;SDS011;3606;52.930;8.644;2023-08-08T10:26:04;4.00;;;1.10;;
7128;SDS011;3606;52.930;8.644;2023-08-08T10:28:31;1.70;;;1.20;;
7128;SDS011;3606;52.930;8.644;2023-08-08T10:30:58;2.57;;;1.17;;
7128;SDS011;3606;52.930;8.644;2023-08-08T10:33:27;1.48;;;0.95;;
7128;SDS011;3606;52.930;8.644;2023-08-08T10:36:04;3.72;;;1.38;;
7128;SDS011;3606;52.930;8.644;2023-08-08T10:41:08;2.53;;;1.27;;
7128;SDS011;3606;52.930;8.644;2023-08-08T10:43:34;2.67;;;1.33;;
7128;SDS011;3606;52.930;8.644;2023-08-08T10:46:00;3.20;;;1.27;;
7128;SDS011;3606;52.930;8.644;2023-08-08T10:48:27;1.58;;;0.90;;
7128;SDS011;3606;52.930;8.644;2023-08-08T10:50:59;4.50;;;1.48;;
7128;SDS011;3606;52.930;8.644;2023-08-08T10:53:26;2.47;;;1.10;;
7128;SDS011;3606;52.930;8.644;2023-08-08T10:56:02;4.17;;;1.07;;
7128;SDS011;3606;52.930;8.644;2023-08-08T10:58:42;3.27;;;1.70;;
7128;SDS011;3606;52.930;8.644;2023-08-08T11:01:12;2.00;;;1.63;;
7128;SDS011;3606;52.930;8.644;2023-08-08T11:03:39;4.00;;;1.30;;
7128;SDS011;3606;52.930;8.644;2023-08-08T11:06:06;3.23;;;1.00;;
7128;SDS011;3606;52.930;8.644;2023-08-08T11:08:33;1.53;;;1.00;;
7128;SDS011;3606;52.930;8.644;2023-08-08T11:11:00;1.00;;;0.90;;
7128;SDS011;3606;52.930;8.644;2023-08-08T11:13:27;1.00;;;0.83;;
7128;SDS011;3606;52.930;8.644;2023-08-08T11:15:52;1.80;;;0.97;;
7128;SDS011;3606;52.930;8.644;2023-08-08T11:18:18;1.40;;;1.10;;
7128;SDS011;3606;52.930;8.644;2023-08-08T11:20:44;1.40;;;0.80;;
7128;SDS011;3606;52.930;8.644;2023-08-08T11:23:10;0.83;;;0.60;;
7128;SDS011;3606;52.930;8.644;2023-08-08T11:25:39;1.53;;;0.83;;
7128;SDS011;3606;52.930;8.644;2023-08-08T11:28:06;1.23;;;1.03;;
7128;SDS011;3606;52.930;8.644;2023-08-08T11:30:33;2.30;;;0.90;;
7128;SDS011;3606;52.930;8.644;2023-08-08T11:33:02;1.17;;;1.07;;
7128;SDS011;3606;52.930;8.644;2023-08-08T11:35:28;3.15;;;1.10;;
7128;SDS011;3606;52.930;8.644;2023-08-08T11:37:54;2.80;;;1.38;;
7128;SDS011;3606;52.930;8.644;2023-08-08T11:40:22;5.43;;;1.45;;
7128;SDS011;3606;52.930;8.644;2023-08-08T11:42:51;1.83;;;1.17;;
7128;SDS011;3606;52.930;8.644;2023-08-08T11:45:18;3.13;;;1.42;;
7128;SDS011;3606;52.930;8.644;2023-08-08T11:47:44;3.28;;;1.23;;
7128;SDS011;3606;52.930;8.644;2023-08-08T11:50:18;2.30;;;1.07;;
7128;SDS011;3606;52.930;8.644;2023-08-08T11:52:48;5.33;;;1.33;;
7128;SDS011;3606;52.930;8.644;2023-08-08T11:55:15;4.10;;;1.30;;
7128;SDS011;3606;52.930;8.644;2023-08-08T11:57:41;2.20;;;1.20;;
7128;SDS011;3606;52.930;8.644;2023-08-08T12:00:07;4.57;;;1.63;;
7128;SDS011;3606;52.930;8.644;2023-08-08T12:02:34;1.58;;;1.00;;
7128;SDS011;3606;52.930;8.644;2023-08-08T12:05:04;3.15;;;1.05;;
7128;SDS011;3606;52.930;8.644;2023-08-08T12:07:31;2.75;;;1.30;;
7128;SDS011;3606;52.930;8.644;2023-08-08T12:10:00;2.63;;;1.50;;
7128;SDS011;3606;52.930;8.644;2023-08-08T12:12:28;2.70;;;1.50;;
7128;SDS011;3606;52.930;8.644;2023-08-08T12:14:56;1.87;;;1.03;;
7128;SDS011;3606;52.930;8.644;2023-08-08T12:17:21;1.90;;;1.30;;
7128;SDS011;3606;52.930;8.644;2023-08-08T12:19:47;3.60;;;1.00;;
7128;SDS011;3606;52.930;8.644;2023-08-08T12:22:13;1.13;;;1.00;;
7128;SDS011;3606;52.930;8.644;2023-08-08T12:24:39;1.57;;;1.20;;
7128;SDS011;3606;52.930;8.644;2023-08-08T12:27:05;1.47;;;1.00;;
7128;SDS011;3606;52.930;8.644;2023-08-08T12:29:31;2.57;;;1.17;;
7128;SDS011;3606;52.930;8.644;2023-08-08T12:31:56;2.37;;;1.30;;
7128;SDS011;3606;52.930;8.644;2023-08-08T12:34:22;1.57;;;1.20;;
7128;SDS011;3606;52.930;8.644;2023-08-08T12:36:47;3.57;;;1.10;;
7128;SDS011;3606;52.930;8.644;2023-08-08T12:39:13;1.53;;;1.40;;
7128;SDS011;3606;52.930;8.644;2023-08-08T12:41:39;2.53;;;1.50;;
7128;SDS011;3606;52.930;8.644;2023-08-08T12:44:05;4.10;;;1.50;;
7128;SDS011;3606;52.930;8.644;2023-08-08T12:46:30;3.67;;;1.67;;
7128;SDS011;3606;52.930;8.644;2023-08-08T12:48:56;5.23;;;1.83;;
7128;SDS011;3606;52.930;8.644;2023-08-08T12:51:22;2.63;;;1.60;;
7128;SDS011;3606;52.930;8.644;2023-08-08T12:53:47;3.97;;;1.70;;
7128;SDS011;3606;52.930;8.644;2023-08-08T12:56:13;3.47;;;2.07;;
7128;SDS011;3606;52.930;8.644;2023-08-08T12:58:39;2.10;;;1.70;;
7128;SDS011;3606;52.930;8.644;2023-08-08T13:01:06;3.60;;;1.80;;
7128;SDS011;3606;52.930;8.644;2023-08-08T13:03:32;2.53;;;1.50;;
7128;SDS011;3606;52.930;8.644;2023-08-08T13:05:59;3.00;;;2.00;;
7128;SDS011;3606;52.930;8.644;2023-08-08T13:08:25;3.90;;;1.97;;
7128;SDS011;3606;52.930;8.644;2023-08-08T13:10:50;3.73;;;1.90;;
7128;SDS011;3606;52.930;8.644;2023-08-08T13:13:16;2.63;;;1.40;;
7128;SDS011;3606;52.930;8.644;2023-08-08T13:15:42;4.90;;;1.90;;
7128;SDS011;3606;52.930;8.644;2023-08-08T13:18:08;4.57;;;1.83;;
7128;SDS011;3606;52.930;8.644;2023-08-08T13:20:34;2.33;;;1.40;;
7128;SDS011;3606;52.930;8.644;2023-08-08T13:22:59;1.83;;;1.20;;
7128;SDS011;3606;52.930;8.644;2023-08-08T13:25:25;3.53;;;1.73;;
7128;SDS011;3606;52.930;8.644;2023-08-08T13:27:50;2.73;;;1.57;;
7128;SDS011;3606;52.930;8.644;2023-08-08T13:30:16;3.00;;;1.37;;
7128;SDS011;3606;52.930;8.644;2023-08-08T13:32:42;4.47;;;1.60;;
7128;SDS011;3606;52.930;8.644;2023-08-08T13:35:08;5.50;;;1.60;;
7128;SDS011;3606;52.930;8.644;2023-08-08T13:37:33;2.57;;;1.33;;
7128;SDS011;3606;52.930;8.644;2023-08-08T13:39:59;1.40;;;1.00;;
7128;SDS011;3606;52.930;8.644;2023-08-08T13:42:25;3.40;;;1.53;;
7128;SDS011;3606;52.930;8.644;2023-08-08T13:44:50;1.83;;;1.40;;
7128;SDS011;3606;52.930;8.644;2023-08-08T13:47:16;1.93;;;1.20;;
7128;SDS011;3606;52.930;8.644;2023-08-08T13:49:41;3.10;;;1.43;;
7128;SDS011;3606;52.930;8.644;2023-08-08T13:52:08;2.43;;;1.33;;
7128;SDS011;3606;52.930;8.644;2023-08-08T13:54:34;3.17;;;1.53;;
7128;SDS011;3606;52.930;8.644;2023-08-08T13:56:59;2.50;;;1.50;;
7128;SDS011;3606;52.930;8.644;2023-08-08T13:59:25;1.97;;;1.30;;
7128;SDS011;3606;52.930;8.644;2023-08-08T14:01:52;4.03;;;1.77;;
7128;SDS011;3606;52.930;8.644;2023-08-08T14:04:18;3.77;;;1.83;;
7128;SDS011;3606;52.930;8.644;2023-08-08T14:06:44;2.43;;;1.40;;
7128;SDS011;3606;52.930;8.644;2023-08-08T14:09:10;3.10;;;1.03;;
7128;SDS011;3606;52.930;8.644;2023-08-08T14:11:36;3.60;;;1.50;;
7128;SDS011;3606;52.930;8.644;2023-08-08T14:14:01;3.03;;;1.53;;
7128;SDS011;3606;52.930;8.644;2023-08-08T14:16:27;1.80;;;1.40;;
7128;SDS011;3606;52.930;8.644;2023-08-08T14:18:52;2.47;;;1.60;;
7128;SDS011;3606;52.930;8.644;2023-08-08T14:21:18;3.63;;;1.57;;
7128;SDS011;3606;52.930;8.644;2023-08-08T14:23:43;3.93;;;1.30;;
7128;SDS011;3606;52.930;8.644;2023-08-08T14:26:09;1.53;;;1.20;;
7128;SDS011;3606;52.930;8.644;2023-08-08T14:28:35;1.83;;;1.00;;
7128;SDS011;3606;52.930;8.644;2023-08-08T14:31:00;3.87;;;1.37;;
7128;SDS011;3606;52.930;8.644;2023-08-08T14:33:27;4.23;;;1.27;;
7128;SDS011;3606;52.930;8.644;2023-08-08T14:35:53;2.97;;;1.10;;
7128;SDS011;3606;52.930;8.644;2023-08-08T14:38:18;4.20;;;1.10;;
7128;SDS011;3606;52.930;8.644;2023-08-08T14:40:48;2.47;;;0.97;;
7128;SDS011;3606;52.930;8.644;2023-08-08T14:43:13;3.63;;;1.10;;
7128;SDS011;3606;52.930;8.644;2023-08-08T14:45:39;3.70;;;1.33;;
7128;SDS011;3606;52.930;8.644;2023-08-08T14:48:05;2.67;;;1.00;;
7128;SDS011;3606;52.930;8.644;2023-08-08T14:50:31;1.20;;;1.10;;
7128;SDS011;3606;52.930;8.644;2023-08-08T14:52:57;3.20;;;1.40;;
7128;SDS011;3606;52.930;8.644;2023-08-08T14:55:23;3.37;;;1.30;;
7128;SDS011;3606;52.930;8.644;2023-08-08T14:57:49;2.00;;;1.10;;
7128;SDS011;3606;52.930;8.644;2023-08-08T15:00:14;2.00;;;1.03;;
7128;SDS011;3606;52.930;8.644;2023-08-08T15:02:40;2.13;;;0.93;;
7128;SDS011;3606;52.930;8.644;2023-08-08T15:05:06;0.87;;;0.77;;
7128;SDS011;3606;52.930;8.644;2023-08-08T15:07:32;3.10;;;1.10;;
7128;SDS011;3606;52.930;8.644;2023-08-08T15:09:57;1.87;;;1.17;;
7128;SDS011;3606;52.930;8.644;2023-08-08T15:12:23;2.03;;;1.20;;
7128;SDS011;3606;52.930;8.644;2023-08-08T15:14:48;2.77;;;1.30;;
7128;SDS011;3606;52.930;8.644;2023-08-08T15:17:15;6.13;;;1.43;;